createdAt,value
2023-04-22T00:04:22.715Z,4.11
2023-04-22T00:08:24.873Z,4.11
2023-04-22T00:14:28.833Z,4.11
2023-04-22T00:20:32.968Z,4.11
2023-04-22T00:24:36.132Z,4.11
2023-04-22T00:28:38.740Z,4.11
2023-04-22T00:30:40.177Z,4.11
2023-04-22T00:34:42.453Z,4.11
2023-04-22T00:38:45.284Z,4.11
2023-04-22T00:40:46.800Z,4.11
2023-04-22T00:44:49.623Z,4.11
2023-04-22T00:46:50.878Z,4.11
2023-04-22T00:50:53.284Z,4.1
2023-04-22T00:56:56.640Z,4.11
2023-04-22T01:03:01.640Z,4.1
2023-04-22T01:07:04.187Z,4.1
2023-04-22T01:13:08.990Z,4.1
2023-04-22T01:17:11.676Z,4.1
2023-04-22T01:19:13.575Z,4.1
2023-04-22T01:23:16.457Z,4.1
2023-04-22T01:27:19.019Z,4.1
2023-04-22T01:29:20.924Z,4.1
2023-04-22T01:33:23.180Z,4.1
2023-04-22T01:39:27.455Z,4.1
2023-04-22T01:45:32.163Z,4.1
2023-04-22T01:49:34.968Z,4.1
2023-04-22T01:55:39.653Z,4.1
2023-04-22T01:59:42.884Z,4.1
2023-04-22T02:01:43.942Z,4.09
2023-04-22T02:05:46.833Z,4.1
2023-04-22T02:09:50.765Z,4.1
2023-04-22T02:11:51.176Z,4.1
2023-04-22T02:15:54.064Z,4.09
2023-04-22T02:21:58.352Z,4.1
2023-04-22T02:28:01.591Z,4.09
2023-04-22T02:32:13.405Z,4.09
2023-04-22T02:38:08.322Z,4.09
2023-04-22T02:44:12.933Z,4.09
2023-04-22T02:48:15.744Z,4.09
2023-04-22T02:54:20.173Z,4.09
2023-04-22T02:58:23.376Z,4.08
2023-04-22T03:02:27.229Z,4.09
2023-04-22T03:04:28.336Z,4.08
2023-04-22T03:08:31.839Z,4.09
2023-04-22T03:10:33.308Z,4.08
2023-04-22T03:12:34.949Z,4.08
2023-04-22T03:14:36.727Z,4.08
2023-04-22T03:20:40.661Z,4.08
2023-04-22T03:22:42.054Z,4.08
2023-04-22T03:26:45.705Z,4.08
2023-04-22T03:30:47.870Z,4.08
2023-04-22T03:36:52.437Z,4.08
2023-04-22T03:40:55.101Z,4.08
2023-04-22T03:42:57.023Z,4.08
2023-04-22T03:46:59.379Z,4.08
2023-04-22T03:51:02.985Z,4.08
2023-04-22T03:53:04.885Z,4.08
2023-04-22T03:57:08.427Z,4.08
2023-04-22T04:03:12.605Z,4.08
2023-04-22T04:09:16.699Z,4.08
2023-04-22T04:13:19.794Z,4.08
2023-04-22T04:19:23.870Z,4.07
2023-04-22T04:23:27.030Z,4.07
2023-04-22T04:25:28.208Z,4.07
2023-04-22T04:29:30.496Z,4.07
2023-04-22T04:33:33.884Z,4.07
2023-04-22T04:35:34.861Z,4.07
2023-04-22T04:39:37.042Z,4.07
2023-04-22T04:45:41.282Z,4.07
2023-04-22T04:51:46.063Z,4.07
2023-04-22T04:55:48.666Z,4.07
2023-04-22T05:01:52.292Z,4.07
2023-04-22T05:05:54.893Z,4.07
2023-04-22T05:07:57.904Z,4.07
2023-04-22T05:12:00.605Z,4.07
2023-04-22T05:16:03.441Z,4.07
2023-04-22T05:18:04.372Z,4.07
2023-04-22T05:18:48.162Z,4.06
2023-04-22T05:20:50.021Z,4.06
2023-04-22T05:22:51.059Z,4.07
2023-04-22T05:26:54.462Z,4.07
2023-04-22T05:28:55.477Z,4.06
2023-04-22T05:32:58.375Z,4.06
2023-04-22T05:39:03.997Z,4.06
2023-04-22T05:43:07.533Z,4.06
2023-04-22T05:45:09.222Z,4.06
2023-04-22T05:49:12.911Z,4.07
2023-04-22T05:53:15.337Z,4.06
2023-04-22T05:55:16.944Z,4.07
2023-04-22T05:59:28.544Z,4.07
2023-04-22T06:03:24.044Z,4.07
2023-04-22T06:05:24.972Z,4.08
2023-04-22T06:09:28.036Z,4.08
2023-04-22T06:11:29.742Z,4.07
2023-04-22T06:13:30.663Z,4.08
2023-04-22T06:15:40.153Z,4.08
2023-04-22T06:21:36.847Z,4.08
2023-04-22T06:27:41.759Z,4.08
2023-04-22T06:31:44.481Z,4.08
2023-04-22T06:33:45.625Z,4.08
2023-04-22T06:37:48.190Z,4.08
2023-04-22T06:41:51.311Z,4.09
2023-04-22T06:43:52.698Z,4.1
2023-04-22T06:47:55.903Z,4.09
2023-04-22T06:54:00.441Z,4.1
2023-04-22T07:00:05.150Z,4.1
2023-04-22T07:04:08.188Z,4.11
2023-04-22T07:10:12.950Z,4.12
2023-04-22T07:14:15.479Z,4.12
2023-04-22T07:16:17.032Z,4.12
2023-04-22T07:20:19.892Z,4.12
2023-04-22T07:24:22.148Z,4.12
2023-04-22T07:26:23.979Z,4.13
2023-04-22T07:30:26.443Z,4.15
2023-04-22T07:36:30.063Z,4.16
2023-04-22T07:42:34.946Z,4.16
2023-04-22T07:46:37.978Z,4.17
2023-04-22T07:52:41.008Z,4.18
2023-04-22T07:56:44.003Z,4.18
2023-04-22T07:58:45.235Z,4.18
2023-04-22T08:02:48.372Z,4.18
2023-04-22T08:08:51.241Z,4.19
2023-04-22T08:12:54.432Z,4.19
2023-04-22T08:16:57.149Z,4.19
2023-04-22T08:18:58.228Z,4.19
2023-04-22T08:23:01.560Z,4.19
2023-04-22T08:25:02.948Z,4.19
2023-04-22T08:29:05.525Z,4.19
2023-04-22T08:35:09.693Z,4.19
2023-04-22T08:41:13.861Z,4.2
2023-04-22T08:45:16.740Z,4.2
2023-04-22T08:51:20.354Z,4.2
2023-04-22T08:55:23.032Z,4.2
2023-04-22T08:57:25.105Z,4.2
2023-04-22T09:01:28.213Z,4.2
2023-04-22T09:05:30.637Z,4.2
2023-04-22T09:07:32.019Z,4.2
2023-04-22T09:12:00.247Z,4.19
2023-04-22T09:17:38.832Z,4.19
2023-04-22T09:23:42.808Z,4.19
2023-04-22T09:27:46.873Z,4.19
2023-04-22T09:33:50.390Z,4.19
2023-04-22T09:37:53.474Z,4.19
2023-04-22T09:39:54.318Z,4.18
2023-04-22T09:43:56.735Z,4.18
2023-04-22T09:47:59.437Z,4.18
2023-04-22T09:50:00.458Z,4.19
2023-04-22T09:54:02.833Z,4.18
2023-04-22T10:00:05.806Z,4.18
2023-04-22T10:04:08.168Z,4.18
2023-04-22T10:06:09.590Z,4.18
2023-04-22T10:08:10.375Z,4.18
2023-04-22T10:10:11.749Z,4.18
2023-04-22T10:16:15.698Z,4.18
2023-04-22T10:18:16.859Z,4.18
2023-04-22T10:22:19.060Z,4.17
2023-04-22T10:26:21.848Z,4.17
2023-04-22T10:32:26.083Z,4.17
2023-04-22T10:36:28.391Z,4.17
2023-04-22T10:38:29.886Z,4.17
2023-04-22T10:42:33.784Z,4.17
2023-04-22T10:46:35.843Z,4.17
2023-04-22T10:48:36.820Z,4.17
2023-04-22T10:52:39.143Z,4.17
2023-04-22T10:58:43.305Z,4.17
2023-04-22T11:04:47.788Z,4.17
2023-04-22T11:08:50.110Z,4.17
2023-04-22T11:14:55.000Z,4.17
2023-04-22T11:18:57.634Z,4.17
2023-04-22T11:20:58.940Z,4.17
2023-04-22T11:25:00.966Z,4.17
2023-04-22T11:29:03.749Z,4.17
2023-04-22T11:31:04.981Z,4.16
2023-04-22T11:35:07.747Z,4.16
2023-04-22T11:39:10.396Z,4.16
2023-04-22T11:41:11.711Z,4.16
2023-04-22T11:45:15.241Z,4.16
2023-04-22T11:47:16.320Z,4.16
2023-04-22T11:49:17.482Z,4.16
2023-04-22T11:51:19.401Z,4.16
2023-04-22T11:57:22.296Z,4.16
2023-04-22T12:03:26.833Z,4.16
2023-04-22T12:04:10.252Z,4.16
2023-04-22T12:08:12.914Z,4.16
2023-04-22T12:12:15.564Z,4.16
2023-04-22T12:14:16.842Z,4.16
2023-04-22T12:18:19.039Z,4.16
2023-04-22T12:22:22.330Z,4.16
2023-04-22T12:24:23.614Z,4.16
2023-04-22T12:28:26.029Z,4.16
2023-04-22T12:34:29.831Z,4.16
2023-04-22T12:40:33.770Z,4.16
2023-04-22T12:44:36.177Z,4.16
2023-04-22T12:50:40.723Z,4.16
2023-04-22T12:54:42.994Z,4.16
2023-04-22T12:56:43.943Z,4.15
2023-04-22T13:00:46.968Z,4.15
2023-04-22T13:04:50.314Z,4.15
2023-04-22T13:06:51.141Z,4.15
2023-04-22T13:10:52.849Z,4.15
2023-04-22T13:14:55.741Z,4.15
2023-04-22T13:16:57.372Z,4.15
2023-04-22T13:20:59.726Z,4.15
2023-04-22T13:23:00.772Z,4.15
2023-04-22T13:25:01.844Z,4.15
2023-04-22T13:27:03.565Z,4.15
2023-04-22T13:33:07.013Z,4.15
2023-04-22T13:35:08.265Z,4.15
2023-04-22T13:39:10.454Z,4.15
2023-04-22T13:43:13.078Z,4.14
2023-04-22T13:49:16.533Z,4.14
2023-04-22T13:53:19.302Z,4.14
2023-04-22T13:55:20.781Z,4.14
2023-04-22T13:59:23.680Z,4.14
2023-04-22T14:03:26.435Z,4.14
2023-04-22T14:05:27.331Z,4.14
2023-04-22T14:09:31.188Z,4.14
2023-04-22T14:15:34.398Z,4.14
2023-04-22T14:17:35.772Z,4.14
2023-04-22T14:21:38.381Z,4.14
2023-04-22T14:25:40.789Z,4.14
2023-04-22T14:27:41.837Z,4.14
2023-04-22T14:29:43.592Z,4.14
2023-04-22T14:37:48.417Z,4.14
2023-04-22T14:41:51.074Z,4.14
2023-04-22T14:47:54.376Z,4.14
2023-04-22T14:51:56.682Z,4.15
2023-04-22T14:53:57.951Z,4.15
2023-04-22T14:58:00.627Z,4.15
2023-04-22T15:02:03.300Z,4.15
2023-04-22T15:04:04.452Z,4.14
2023-04-22T15:08:06.324Z,4.16
2023-04-22T15:14:10.295Z,4.16
2023-04-22T15:20:13.503Z,4.18
2023-04-22T15:24:15.937Z,4.19
2023-04-22T15:26:17.028Z,4.19
2023-04-22T15:28:17.938Z,4.19
2023-04-22T15:30:19.700Z,4.19
2023-04-22T15:34:21.685Z,4.19
2023-04-22T15:36:22.628Z,4.19
2023-04-22T15:40:24.871Z,4.19
2023-04-22T15:44:28.243Z,4.19
2023-04-22T15:46:28.252Z,4.2
2023-04-22T15:50:30.772Z,4.18
2023-04-22T15:54:34.036Z,4.18
2023-04-22T15:56:35.516Z,4.17
2023-04-22T16:00:38.328Z,4.18
2023-04-22T16:02:40.140Z,4.17
2023-04-22T16:04:41.401Z,4.17
2023-04-22T16:06:42.811Z,4.18
2023-04-22T16:12:46.814Z,4.17
2023-04-22T16:14:47.996Z,4.17
2023-04-22T16:18:50.387Z,4.17
2023-04-22T16:22:53.172Z,4.17
2023-04-22T16:28:57.116Z,4.17
2023-04-22T16:33:00.603Z,4.17
2023-04-22T16:35:01.668Z,4.17
2023-04-22T16:39:04.943Z,4.17
2023-04-22T16:43:07.644Z,4.17
2023-04-22T16:45:08.603Z,4.17
2023-04-22T16:49:11.085Z,4.17
2023-04-22T16:55:14.292Z,4.16
2023-04-22T17:01:18.537Z,4.16
2023-04-22T17:05:20.776Z,4.17
2023-04-22T17:11:23.987Z,4.16
2023-04-22T17:15:25.861Z,4.16
2023-04-22T17:17:27.484Z,4.16
2023-04-22T17:21:30.056Z,4.16
2023-04-22T17:25:32.117Z,4.16
2023-04-22T17:27:33.538Z,4.16
2023-04-22T17:31:35.573Z,4.16
2023-04-22T17:37:40.073Z,4.16
2023-04-22T17:41:43.282Z,4.16
2023-04-22T17:43:44.435Z,4.16
2023-04-22T17:47:47.512Z,4.16
2023-04-22T17:53:51.908Z,4.16
2023-04-22T17:59:56.177Z,4.16
2023-04-22T18:03:59.847Z,4.15
2023-04-22T18:10:02.965Z,4.16
2023-04-22T18:14:05.261Z,4.16
2023-04-22T18:16:06.318Z,4.16
2023-04-22T18:20:17.124Z,4.15
2023-04-22T18:24:11.800Z,4.15
2023-04-22T18:26:13.471Z,4.15
2023-04-22T18:30:16.195Z,4.15
2023-04-22T18:36:19.710Z,4.15
2023-04-22T18:42:23.347Z,4.15
2023-04-22T18:46:26.172Z,4.15
2023-04-22T18:49:11.539Z,4.14
2023-04-22T18:51:12.743Z,4.15
2023-04-22T18:53:13.613Z,4.15
2023-04-22T18:57:16.564Z,4.15
2023-04-22T19:01:19.519Z,4.14
2023-04-22T19:03:21.025Z,4.14
2023-04-22T19:07:23.355Z,4.14
2023-04-22T19:13:30.230Z,4.14
2023-04-22T19:19:32.749Z,4.14
2023-04-22T19:23:35.291Z,4.14
2023-04-22T19:29:39.590Z,4.14
2023-04-22T19:33:42.223Z,4.14
2023-04-22T19:35:43.977Z,4.14
2023-04-22T19:39:47.048Z,4.14
2023-04-22T19:43:49.272Z,4.14
2023-04-22T19:45:50.687Z,4.14
2023-04-22T19:49:52.635Z,4.14
2023-04-22T19:55:55.485Z,4.14
2023-04-22T19:59:59.026Z,4.13
2023-04-22T20:02:00.545Z,4.13
2023-04-22T20:06:02.710Z,4.14
2023-04-22T20:12:06.806Z,4.13
2023-04-22T20:18:11.789Z,4.13
2023-04-22T20:22:14.874Z,4.13
2023-04-22T20:28:18.478Z,4.13
2023-04-22T20:32:20.655Z,4.13
2023-04-22T20:34:22.195Z,4.13
2023-04-22T20:38:24.488Z,4.13
2023-04-22T20:42:26.321Z,4.13
2023-04-22T20:44:27.854Z,4.13
2023-04-22T20:48:30.258Z,4.13
2023-04-22T20:54:34.946Z,4.13
2023-04-22T21:00:39.350Z,4.13
2023-04-22T21:04:42.743Z,4.13
2023-04-22T21:10:46.191Z,4.12
2023-04-22T21:14:49.467Z,4.12
2023-04-22T21:16:51.096Z,4.12
2023-04-22T21:20:53.330Z,4.12
2023-04-22T21:24:56.287Z,4.12
2023-04-22T21:26:57.289Z,4.12
2023-04-22T21:31:00.027Z,4.12
2023-04-22T21:35:02.377Z,4.12
2023-04-22T21:37:04.122Z,4.12
2023-04-22T21:41:07.270Z,4.12
2023-04-22T21:43:08.716Z,4.12
2023-04-22T21:45:10.429Z,4.12
2023-04-22T21:47:11.947Z,4.12
2023-04-22T21:53:16.816Z,4.12
2023-04-22T21:59:20.336Z,4.12
2023-04-22T22:03:23.988Z,4.11
2023-04-22T22:09:27.401Z,4.11
2023-04-22T22:13:30.103Z,4.11
2023-04-22T22:15:31.145Z,4.12
2023-04-22T22:19:34.156Z,4.11
2023-04-22T22:23:36.581Z,4.11
2023-04-22T22:25:38.135Z,4.11
2023-04-22T22:29:40.391Z,4.11
2023-04-22T22:35:43.864Z,4.11
2023-04-22T22:41:48.057Z,4.11
2023-04-22T22:45:50.223Z,4.11
2023-04-22T22:51:53.989Z,4.11
2023-04-22T22:55:56.858Z,4.11
2023-04-22T22:57:58.003Z,4.11
2023-04-22T23:02:09.480Z,4.11
2023-04-22T23:06:05.103Z,4.11
2023-04-22T23:08:06.517Z,4.1
2023-04-22T23:12:09.115Z,4.11
2023-04-22T23:18:12.627Z,4.1
2023-04-22T23:22:15.265Z,4.1
2023-04-22T23:24:16.865Z,4.1
2023-04-22T23:28:19.325Z,4.1
2023-04-22T23:34:23.658Z,4.1
2023-04-22T23:40:27.791Z,4.1
2023-04-22T23:44:30.144Z,4.1
2023-04-22T23:50:34.000Z,4.1
2023-04-22T23:54:36.912Z,4.1
2023-04-22T23:58:40.448Z,4.1
